sensor_id;sensor_type;location;lat;lon;timestamp;temperature;humidity
24522;DHT22;12680;57.804;12.190;2024-01-15T00:00:29;1.20;99.90
24522;DHT22;12680;57.804;12.190;2024-01-15T00:02:56;1.10;99.90
24522;DHT22;12680;57.804;12.190;2024-01-15T00:05:24;1.90;99.90
24522;DHT22;12680;57.804;12.190;2024-01-15T00:07:51;1.10;99.90
24522;DHT22;12680;57.804;12.190;2024-01-15T00:10:18;1.10;99.90
24522;DHT22;12680;57.804;12.190;2024-01-15T00:12:44;2.80;99.90
24522;DHT22;12680;57.804;12.190;2024-01-15T00:15:12;1.10;99.90
24522;DHT22;12680;57.804;12.190;2024-01-15T00:17:39;1.10;99.90
24522;DHT22;12680;57.804;12.190;2024-01-15T00:20:06;1.10;99.90
24522;DHT22;12680;57.804;12.190;2024-01-15T00:22:34;1.10;99.90
24522;DHT22;12680;57.804;12.190;2024-01-15T00:25:03;-1.60;99.90
24522;DHT22;12680;57.804;12.190;2024-01-15T00:27:30;1.10;99.90
24522;DHT22;12680;57.804;12.190;2024-01-15T00:29:57;1.20;99.90
24522;DHT22;12680;57.804;12.190;2024-01-15T00:32:24;1.20;99.90
24522;DHT22;12680;57.804;12.190;2024-01-15T00:34:51;2.80;99.90
24522;DHT22;12680;57.804;12.190;2024-01-15T00:37:18;1.10;99.90
24522;DHT22;12680;57.804;12.190;2024-01-15T00:39:45;1.10;99.90
24522;DHT22;12680;57.804;12.190;2024-01-15T00:42:13;1.10;99.90
24522;DHT22;12680;57.804;12.190;2024-01-15T00:44:40;3.10;99.90
24522;DHT22;12680;57.804;12.190;2024-01-15T00:47:06;1.50;99.90
24522;DHT22;12680;57.804;12.190;2024-01-15T00:49:33;1.60;99.90
24522;DHT22;12680;57.804;12.190;2024-01-15T00:52:01;1.70;99.90
24522;DHT22;12680;57.804;12.190;2024-01-15T00:54:28;1.70;99.90
24522;DHT22;12680;57.804;12.190;2024-01-15T00:56:55;1.80;99.90
24522;DHT22;12680;57.804;12.190;2024-01-15T00:59:22;1.80;99.90
24522;DHT22;12680;57.804;12.190;2024-01-15T01:01:48;1.80;99.90
24522;DHT22;12680;57.804;12.190;2024-01-15T01:04:15;1.80;99.90
24522;DHT22;12680;57.804;12.190;2024-01-15T01:06:43;1.80;99.90
24522;DHT22;12680;57.804;12.190;2024-01-15T01:09:10;1.80;99.90
24522;DHT22;12680;57.804;12.190;2024-01-15T01:11:37;1.90;99.90
24522;DHT22;12680;57.804;12.190;2024-01-15T01:14:04;1.90;99.90
24522;DHT22;12680;57.804;12.190;2024-01-15T01:16:31;2.00;99.90
24522;DHT22;12680;57.804;12.190;2024-01-15T01:19:05;1.90;99.90
24522;DHT22;12680;57.804;12.190;2024-01-15T01:21:34;1.90;99.90
24522;DHT22;12680;57.804;12.190;2024-01-15T01:24:01;1.80;99.90
24522;DHT22;12680;57.804;12.190;2024-01-15T01:26:28;3.80;99.90
24522;DHT22;12680;57.804;12.190;2024-01-15T01:28:55;1.80;99.90
24522;DHT22;12680;57.804;12.190;2024-01-15T01:31:23;1.70;99.90
24522;DHT22;12680;57.804;12.190;2024-01-15T01:33:51;1.70;99.90
24522;DHT22;12680;57.804;12.190;2024-01-15T01:36:18;4.00;99.90
24522;DHT22;12680;57.804;12.190;2024-01-15T01:38:45;1.80;99.90
24522;DHT22;12680;57.804;12.190;2024-01-15T01:41:12;1.70;99.90
24522;DHT22;12680;57.804;12.190;2024-01-15T01:43:39;1.70;99.90
24522;DHT22;12680;57.804;12.190;2024-01-15T01:46:06;1.70;99.90
24522;DHT22;12680;57.804;12.190;2024-01-15T01:48:34;1.70;99.90
24522;DHT22;12680;57.804;12.190;2024-01-15T01:51:03;1.70;99.90
24522;DHT22;12680;57.804;12.190;2024-01-15T01:53:32;1.60;99.90
24522;DHT22;12680;57.804;12.190;2024-01-15T01:56:00;1.50;99.90
24522;DHT22;12680;57.804;12.190;2024-01-15T01:58:28;1.20;99.90
24522;DHT22;12680;57.804;12.190;2024-01-15T02:00:56;1.00;99.90
24522;DHT22;12680;57.804;12.190;2024-01-15T02:03:23;3.20;99.90
24522;DHT22;12680;57.804;12.190;2024-01-15T02:05:50;0.70;99.90
24522;DHT22;12680;57.804;12.190;2024-01-15T02:08:18;0.50;99.90
24522;DHT22;12680;57.804;12.190;2024-01-15T02:10:45;0.40;99.90
24522;DHT22;12680;57.804;12.190;2024-01-15T02:13:11;0.20;99.90
24522;DHT22;12680;57.804;12.190;2024-01-15T02:15:38;0.10;99.90
24522;DHT22;12680;57.804;12.190;2024-01-15T02:18:06;0.00;99.90
24522;DHT22;12680;57.804;12.190;2024-01-15T02:20:35;0.10;99.90
24522;DHT22;12680;57.804;12.190;2024-01-15T02:23:10;3.10;99.90
24522;DHT22;12680;57.804;12.190;2024-01-15T02:25:41;-0.30;99.90
24522;DHT22;12680;57.804;12.190;2024-01-15T02:28:10;-0.40;99.90
24522;DHT22;12680;57.804;12.190;2024-01-15T02:30:38;-0.50;99.90
24522;DHT22;12680;57.804;12.190;2024-01-15T02:33:10;-0.70;99.90
24522;DHT22;12680;57.804;12.190;2024-01-15T02:35:38;-0.80;99.90
24522;DHT22;12680;57.804;12.190;2024-01-15T02:38:05;-0.80;99.90
24522;DHT22;12680;57.804;12.190;2024-01-15T02:40:33;-0.90;99.90
24522;DHT22;12680;57.804;12.190;2024-01-15T02:43:00;-0.70;99.90
24522;DHT22;12680;57.804;12.190;2024-01-15T02:45:27;-1.10;99.90
24522;DHT22;12680;57.804;12.190;2024-01-15T02:47:54;-1.10;99.90
24522;DHT22;12680;57.804;12.190;2024-01-15T02:50:22;-1.20;99.90
24522;DHT22;12680;57.804;12.190;2024-01-15T02:52:49;-1.30;99.90
24522;DHT22;12680;57.804;12.190;2024-01-15T02:55:16;-1.40;99.90
24522;DHT22;12680;57.804;12.190;2024-01-15T02:57:43;-1.40;99.90
24522;DHT22;12680;57.804;12.190;2024-01-15T03:00:11;-1.40;99.90
24522;DHT22;12680;57.804;12.190;2024-01-15T03:02:39;-1.50;99.90
24522;DHT22;12680;57.804;12.190;2024-01-15T03:05:10;-1.60;99.90
24522;DHT22;12680;57.804;12.190;2024-01-15T03:07:37;-1.60;99.90
24522;DHT22;12680;57.804;12.190;2024-01-15T03:10:08;-1.60;99.90
24522;DHT22;12680;57.804;12.190;2024-01-15T03:12:35;-1.60;99.90
24522;DHT22;12680;57.804;12.190;2024-01-15T03:15:02;-1.70;99.90
24522;DHT22;12680;57.804;12.190;2024-01-15T03:17:29;-1.80;99.90
24522;DHT22;12680;57.804;12.190;2024-01-15T03:19:56;-1.80;99.90
24522;DHT22;12680;57.804;12.190;2024-01-15T03:22:23;-1.90;99.90
24522;DHT22;12680;57.804;12.190;2024-01-15T03:24:50;-1.90;99.90
24522;DHT22;12680;57.804;12.190;2024-01-15T03:27:18;-1.90;99.90
24522;DHT22;12680;57.804;12.190;2024-01-15T03:29:45;-1.90;99.90
24522;DHT22;12680;57.804;12.190;2024-01-15T03:32:12;-2.00;99.90
24522;DHT22;12680;57.804;12.190;2024-01-15T03:34:39;-2.00;99.90
24522;DHT22;12680;57.804;12.190;2024-01-15T03:37:06;-2.00;99.90
24522;DHT22;12680;57.804;12.190;2024-01-15T03:39:33;-2.10;99.90
24522;DHT22;12680;57.804;12.190;2024-01-15T03:42:00;-2.10;99.90
24522;DHT22;12680;57.804;12.190;2024-01-15T03:44:27;-2.20;99.90
24522;DHT22;12680;57.804;12.190;2024-01-15T03:46:54;-2.20;99.90
24522;DHT22;12680;57.804;12.190;2024-01-15T03:49:20;-2.20;99.90
24522;DHT22;12680;57.804;12.190;2024-01-15T03:51:48;-2.40;99.90
24522;DHT22;12680;57.804;12.190;2024-01-15T03:54:14;-2.40;99.90
24522;DHT22;12680;57.804;12.190;2024-01-15T03:56:46;-2.40;99.90
24522;DHT22;12680;57.804;12.190;2024-01-15T03:59:13;-2.30;99.90
24522;DHT22;12680;57.804;12.190;2024-01-15T04:01:39;-2.40;99.90
24522;DHT22;12680;57.804;12.190;2024-01-15T04:04:06;-2.40;99.90
24522;DHT22;12680;57.804;12.190;2024-01-15T04:06:33;-2.40;99.90
24522;DHT22;12680;57.804;12.190;2024-01-15T04:09:00;-2.40;99.90
24522;DHT22;12680;57.804;12.190;2024-01-15T04:11:27;0.30;99.90
24522;DHT22;12680;57.804;12.190;2024-01-15T04:13:54;-2.40;99.90
24522;DHT22;12680;57.804;12.190;2024-01-15T04:16:21;-2.50;99.90
24522;DHT22;12680;57.804;12.190;2024-01-15T04:18:48;-2.50;99.90
24522;DHT22;12680;57.804;12.190;2024-01-15T04:21:17;-2.40;99.90
24522;DHT22;12680;57.804;12.190;2024-01-15T04:23:44;-2.50;99.90
24522;DHT22;12680;57.804;12.190;2024-01-15T04:26:11;-2.50;99.90
24522;DHT22;12680;57.804;12.190;2024-01-15T04:28:37;-2.50;99.90
24522;DHT22;12680;57.804;12.190;2024-01-15T04:31:04;-2.50;99.90
24522;DHT22;12680;57.804;12.190;2024-01-15T04:33:32;-2.50;99.90
24522;DHT22;12680;57.804;12.190;2024-01-15T04:36:06;-2.50;99.90
24522;DHT22;12680;57.804;12.190;2024-01-15T04:38:33;-2.60;99.90
24522;DHT22;12680;57.804;12.190;2024-01-15T04:41:03;-2.70;99.90
24522;DHT22;12680;57.804;12.190;2024-01-15T04:43:30;-2.70;99.90
24522;DHT22;12680;57.804;12.190;2024-01-15T04:45:56;-2.70;99.90
24522;DHT22;12680;57.804;12.190;2024-01-15T04:48:24;-2.70;99.90
24522;DHT22;12680;57.804;12.190;2024-01-15T04:50:50;-2.70;99.90
24522;DHT22;12680;57.804;12.190;2024-01-15T04:53:17;-2.70;99.90
24522;DHT22;12680;57.804;12.190;2024-01-15T04:55:44;-2.70;99.90
24522;DHT22;12680;57.804;12.190;2024-01-15T04:58:11;-2.70;99.90
24522;DHT22;12680;57.804;12.190;2024-01-15T05:00:37;-2.70;99.90
24522;DHT22;12680;57.804;12.190;2024-01-15T05:03:04;-2.60;99.90
24522;DHT22;12680;57.804;12.190;2024-01-15T05:05:31;-2.80;99.90
24522;DHT22;12680;57.804;12.190;2024-01-15T05:07:58;-2.70;99.90
24522;DHT22;12680;57.804;12.190;2024-01-15T05:10:25;-2.70;99.90
24522;DHT22;12680;57.804;12.190;2024-01-15T05:12:52;-2.70;99.90
24522;DHT22;12680;57.804;12.190;2024-01-15T05:15:18;-2.70;99.90
24522;DHT22;12680;57.804;12.190;2024-01-15T05:17:46;-2.70;99.90
24522;DHT22;12680;57.804;12.190;2024-01-15T05:20:13;-2.80;99.90
24522;DHT22;12680;57.804;12.190;2024-01-15T05:22:40;-2.70;99.90
24522;DHT22;12680;57.804;12.190;2024-01-15T05:25:07;-2.80;99.90
24522;DHT22;12680;57.804;12.190;2024-01-15T05:27:33;-2.80;99.90
24522;DHT22;12680;57.804;12.190;2024-01-15T05:30:00;-2.80;99.90
24522;DHT22;12680;57.804;12.190;2024-01-15T05:32:27;-2.80;99.90
24522;DHT22;12680;57.804;12.190;2024-01-15T05:34:54;-2.90;99.90
24522;DHT22;12680;57.804;12.190;2024-01-15T05:37:21;-2.80;99.90
24522;DHT22;12680;57.804;12.190;2024-01-15T05:39:47;-2.90;99.90
24522;DHT22;12680;57.804;12.190;2024-01-15T05:42:14;-2.90;99.90
24522;DHT22;12680;57.804;12.190;2024-01-15T05:44:41;-3.00;99.90
24522;DHT22;12680;57.804;12.190;2024-01-15T05:47:08;-3.00;99.90
24522;DHT22;12680;57.804;12.190;2024-01-15T05:49:35;-3.00;99.90
24522;DHT22;12680;57.804;12.190;2024-01-15T05:52:03;-3.00;99.90
24522;DHT22;12680;57.804;12.190;2024-01-15T05:54:29;-3.10;99.90
24522;DHT22;12680;57.804;12.190;2024-01-15T05:56:56;-3.10;99.90
24522;DHT22;12680;57.804;12.190;2024-01-15T05:59:23;-3.10;99.90
24522;DHT22;12680;57.804;12.190;2024-01-15T06:01:50;-3.10;99.90
24522;DHT22;12680;57.804;12.190;2024-01-15T06:04:17;-3.10;99.90
24522;DHT22;12680;57.804;12.190;2024-01-15T06:09:11;-3.20;99.90
24522;DHT22;12680;57.804;12.190;2024-01-15T06:14:05;-3.30;99.90
24522;DHT22;12680;57.804;12.190;2024-01-15T06:16:32;-3.40;99.90
24522;DHT22;12680;57.804;12.190;2024-01-15T06:18:59;-3.40;99.90
24522;DHT22;12680;57.804;12.190;2024-01-15T06:21:26;-3.50;99.90
24522;DHT22;12680;57.804;12.190;2024-01-15T06:23:53;-3.50;99.90
24522;DHT22;12680;57.804;12.190;2024-01-15T06:26:20;-3.50;99.90
24522;DHT22;12680;57.804;12.190;2024-01-15T06:31:14;-3.60;99.90
24522;DHT22;12680;57.804;12.190;2024-01-15T06:33:41;-3.60;99.90
24522;DHT22;12680;57.804;12.190;2024-01-15T06:36:08;-3.60;99.90
24522;DHT22;12680;57.804;12.190;2024-01-15T06:38:35;-3.60;99.90
24522;DHT22;12680;57.804;12.190;2024-01-15T06:41:02;-3.60;99.90
24522;DHT22;12680;57.804;12.190;2024-01-15T06:43:28;-3.60;99.90
24522;DHT22;12680;57.804;12.190;2024-01-15T06:45:55;-3.70;99.90
24522;DHT22;12680;57.804;12.190;2024-01-15T06:50:49;-3.80;99.90
24522;DHT22;12680;57.804;12.190;2024-01-15T06:53:16;-3.80;99.90
24522;DHT22;12680;57.804;12.190;2024-01-15T06:55:43;-3.80;99.90
24522;DHT22;12680;57.804;12.190;2024-01-15T06:58:10;-3.80;99.90
24522;DHT22;12680;57.804;12.190;2024-01-15T07:00:36;-3.80;99.90
24522;DHT22;12680;57.804;12.190;2024-01-15T07:03:04;-3.80;99.90
24522;DHT22;12680;57.804;12.190;2024-01-15T07:05:31;-3.80;99.90
24522;DHT22;12680;57.804;12.190;2024-01-15T07:07:59;-3.90;99.90
24522;DHT22;12680;57.804;12.190;2024-01-15T07:10:26;-3.90;99.90
24522;DHT22;12680;57.804;12.190;2024-01-15T07:12:53;-3.90;99.90
24522;DHT22;12680;57.804;12.190;2024-01-15T07:15:20;-3.90;99.90
24522;DHT22;12680;57.804;12.190;2024-01-15T07:17:47;-3.90;99.90
24522;DHT22;12680;57.804;12.190;2024-01-15T07:20:14;-3.90;99.90
24522;DHT22;12680;57.804;12.190;2024-01-15T07:22:40;-3.90;99.90
24522;DHT22;12680;57.804;12.190;2024-01-15T07:25:07;-3.90;99.90
24522;DHT22;12680;57.804;12.190;2024-01-15T07:30:01;-3.90;99.90
24522;DHT22;12680;57.804;12.190;2024-01-15T07:32:30;-3.90;99.90
24522;DHT22;12680;57.804;12.190;2024-01-15T07:34:58;-4.00;99.90
24522;DHT22;12680;57.804;12.190;2024-01-15T07:37:26;-4.00;99.90
24522;DHT22;12680;57.804;12.190;2024-01-15T07:39:53;-4.00;99.90
24522;DHT22;12680;57.804;12.190;2024-01-15T07:42:19;-4.00;99.90
24522;DHT22;12680;57.804;12.190;2024-01-15T07:44:46;-4.10;99.90
24522;DHT22;12680;57.804;12.190;2024-01-15T07:47:13;-4.10;99.90
24522;DHT22;12680;57.804;12.190;2024-01-15T07:49:40;-4.10;99.90
24522;DHT22;12680;57.804;12.190;2024-01-15T07:52:07;-4.10;99.90
24522;DHT22;12680;57.804;12.190;2024-01-15T07:54:34;-4.10;99.90
24522;DHT22;12680;57.804;12.190;2024-01-15T07:57:02;-4.10;99.90
24522;DHT22;12680;57.804;12.190;2024-01-15T07:59:29;-4.10;99.90
24522;DHT22;12680;57.804;12.190;2024-01-15T08:01:59;-4.10;99.90
24522;DHT22;12680;57.804;12.190;2024-01-15T08:04:26;-4.10;99.90
24522;DHT22;12680;57.804;12.190;2024-01-15T08:06:53;-4.10;99.90
24522;DHT22;12680;57.804;12.190;2024-01-15T08:09:20;-4.10;99.90
24522;DHT22;12680;57.804;12.190;2024-01-15T08:11:47;-4.10;99.90
24522;DHT22;12680;57.804;12.190;2024-01-15T08:14:14;-4.20;99.90
24522;DHT22;12680;57.804;12.190;2024-01-15T08:19:10;-4.20;99.90
24522;DHT22;12680;57.804;12.190;2024-01-15T08:24:04;-4.20;99.90
24522;DHT22;12680;57.804;12.190;2024-01-15T08:26:32;-4.20;99.90
24522;DHT22;12680;57.804;12.190;2024-01-15T08:28:59;-4.10;99.90
24522;DHT22;12680;57.804;12.190;2024-01-15T08:31:26;-4.10;99.90
24522;DHT22;12680;57.804;12.190;2024-01-15T08:33:54;-4.20;99.90
24522;DHT22;12680;57.804;12.190;2024-01-15T08:36:21;-4.20;99.90
24522;DHT22;12680;57.804;12.190;2024-01-15T08:38:48;-4.20;99.90
24522;DHT22;12680;57.804;12.190;2024-01-15T08:41:15;-4.10;99.90
24522;DHT22;12680;57.804;12.190;2024-01-15T08:43:42;-4.10;99.90
24522;DHT22;12680;57.804;12.190;2024-01-15T08:46:08;-4.10;99.90
24522;DHT22;12680;57.804;12.190;2024-01-15T08:48:35;-4.00;99.90
24522;DHT22;12680;57.804;12.190;2024-01-15T08:51:03;-3.90;99.90
24522;DHT22;12680;57.804;12.190;2024-01-15T08:53:30;-3.90;99.90
24522;DHT22;12680;57.804;12.190;2024-01-15T08:55:57;-3.80;99.90
24522;DHT22;12680;57.804;12.190;2024-01-15T08:58:24;-3.80;99.90
24522;DHT22;12680;57.804;12.190;2024-01-15T09:00:51;-3.80;99.90
24522;DHT22;12680;57.804;12.190;2024-01-15T09:03:18;-3.80;99.90
24522;DHT22;12680;57.804;12.190;2024-01-15T09:05:45;-3.70;99.90
24522;DHT22;12680;57.804;12.190;2024-01-15T09:08:12;-3.70;99.90
24522;DHT22;12680;57.804;12.190;2024-01-15T09:10:39;-3.70;99.90
24522;DHT22;12680;57.804;12.190;2024-01-15T09:15:33;-3.70;99.90
24522;DHT22;12680;57.804;12.190;2024-01-15T09:18:00;-3.60;99.90
24522;DHT22;12680;57.804;12.190;2024-01-15T09:20:33;-3.60;99.90
24522;DHT22;12680;57.804;12.190;2024-01-15T09:23:00;-3.60;99.90
24522;DHT22;12680;57.804;12.190;2024-01-15T09:25:26;-3.60;99.90
24522;DHT22;12680;57.804;12.190;2024-01-15T09:27:53;-3.60;99.90
24522;DHT22;12680;57.804;12.190;2024-01-15T09:30:20;-3.60;99.90
24522;DHT22;12680;57.804;12.190;2024-01-15T09:32:47;-3.50;99.90
24522;DHT22;12680;57.804;12.190;2024-01-15T09:35:15;-3.50;99.90
24522;DHT22;12680;57.804;12.190;2024-01-15T09:37:42;-3.50;99.90
24522;DHT22;12680;57.804;12.190;2024-01-15T09:40:15;-3.50;99.90
24522;DHT22;12680;57.804;12.190;2024-01-15T09:42:43;-3.40;99.90
24522;DHT22;12680;57.804;12.190;2024-01-15T09:45:10;-3.60;99.90
24522;DHT22;12680;57.804;12.190;2024-01-15T09:47:38;-3.50;99.90
24522;DHT22;12680;57.804;12.190;2024-01-15T09:50:10;-3.40;99.90
24522;DHT22;12680;57.804;12.190;2024-01-15T09:52:38;-3.40;99.90
24522;DHT22;12680;57.804;12.190;2024-01-15T09:55:08;-3.40;99.90
24522;DHT22;12680;57.804;12.190;2024-01-15T09:57:36;-3.30;99.90
24522;DHT22;12680;57.804;12.190;2024-01-15T10:00:04;-3.20;99.90
24522;DHT22;12680;57.804;12.190;2024-01-15T10:02:34;-3.10;99.90
24522;DHT22;12680;57.804;12.190;2024-01-15T10:05:02;-3.10;99.90
24522;DHT22;12680;57.804;12.190;2024-01-15T10:07:29;-3.00;99.90
24522;DHT22;12680;57.804;12.190;2024-01-15T10:09:57;-3.00;99.90
24522;DHT22;12680;57.804;12.190;2024-01-15T10:12:24;-3.00;99.90
24522;DHT22;12680;57.804;12.190;2024-01-15T10:14:54;-3.10;99.90
24522;DHT22;12680;57.804;12.190;2024-01-15T10:17:23;-3.20;99.90
24522;DHT22;12680;57.804;12.190;2024-01-15T10:19:50;-3.20;99.90
24522;DHT22;12680;57.804;12.190;2024-01-15T10:22:17;-3.00;99.90
24522;DHT22;12680;57.804;12.190;2024-01-15T10:24:47;-3.30;99.90
24522;DHT22;12680;57.804;12.190;2024-01-15T10:27:15;-3.20;99.90
24522;DHT22;12680;57.804;12.190;2024-01-15T10:29:43;-3.30;99.90
24522;DHT22;12680;57.804;12.190;2024-01-15T10:32:11;-3.30;99.90
24522;DHT22;12680;57.804;12.190;2024-01-15T10:34:41;-3.30;99.90
24522;DHT22;12680;57.804;12.190;2024-01-15T10:37:10;-3.20;99.90
24522;DHT22;12680;57.804;12.190;2024-01-15T10:39:37;-3.20;99.90
24522;DHT22;12680;57.804;12.190;2024-01-15T10:42:05;-3.50;99.90
24522;DHT22;12680;57.804;12.190;2024-01-15T10:44:34;-3.30;99.90
24522;DHT22;12680;57.804;12.190;2024-01-15T10:47:01;-3.20;99.90
24522;DHT22;12680;57.804;12.190;2024-01-15T10:49:28;-3.30;99.90
24522;DHT22;12680;57.804;12.190;2024-01-15T10:52:01;-3.30;99.90
24522;DHT22;12680;57.804;12.190;2024-01-15T10:54:29;-3.30;99.90
24522;DHT22;12680;57.804;12.190;2024-01-15T10:56:57;-3.20;99.90
24522;DHT22;12680;57.804;12.190;2024-01-15T10:59:24;-3.20;99.90
24522;DHT22;12680;57.804;12.190;2024-01-15T11:01:52;-2.90;99.90
24522;DHT22;12680;57.804;12.190;2024-01-15T11:04:21;-3.00;99.90
24522;DHT22;12680;57.804;12.190;2024-01-15T11:06:52;-3.00;99.90
24522;DHT22;12680;57.804;12.190;2024-01-15T11:09:24;-3.20;99.90
24522;DHT22;12680;57.804;12.190;2024-01-15T11:11:55;-3.30;99.90
24522;DHT22;12680;57.804;12.190;2024-01-15T11:14:39;-3.50;99.90
24522;DHT22;12680;57.804;12.190;2024-01-15T11:17:06;-3.70;99.90
24522;DHT22;12680;57.804;12.190;2024-01-15T11:19:38;-3.50;99.90
24522;DHT22;12680;57.804;12.190;2024-01-15T11:25:01;-3.60;99.90
24522;DHT22;12680;57.804;12.190;2024-01-15T11:27:41;-3.60;99.90
24522;DHT22;12680;57.804;12.190;2024-01-15T11:30:09;-3.60;99.90
24522;DHT22;12680;57.804;12.190;2024-01-15T11:35:09;-3.60;99.90
24522;DHT22;12680;57.804;12.190;2024-01-15T11:40:19;-3.70;99.90
24522;DHT22;12680;57.804;12.190;2024-01-15T11:42:47;-3.70;99.90
24522;DHT22;12680;57.804;12.190;2024-01-15T11:45:21;-3.60;99.90
24522;DHT22;12680;57.804;12.190;2024-01-15T11:47:58;-3.70;99.90
24522;DHT22;12680;57.804;12.190;2024-01-15T11:50:30;-3.90;99.90
24522;DHT22;12680;57.804;12.190;2024-01-15T11:53:01;-4.10;99.90
24522;DHT22;12680;57.804;12.190;2024-01-15T11:55:39;-4.20;99.90
24522;DHT22;12680;57.804;12.190;2024-01-15T11:58:08;-4.20;99.90
24522;DHT22;12680;57.804;12.190;2024-01-15T12:00:48;-4.30;99.90
24522;DHT22;12680;57.804;12.190;2024-01-15T12:03:16;-4.30;99.90
24522;DHT22;12680;57.804;12.190;2024-01-15T12:05:43;-4.20;99.90
24522;DHT22;12680;57.804;12.190;2024-01-15T12:08:10;-4.20;99.90
24522;DHT22;12680;57.804;12.190;2024-01-15T12:10:39;-4.10;99.90
24522;DHT22;12680;57.804;12.190;2024-01-15T12:13:11;-4.00;99.90
24522;DHT22;12680;57.804;12.190;2024-01-15T12:15:39;-4.00;99.90
24522;DHT22;12680;57.804;12.190;2024-01-15T12:18:09;-4.00;99.90
24522;DHT22;12680;57.804;12.190;2024-01-15T12:20:36;-3.90;99.90
24522;DHT22;12680;57.804;12.190;2024-01-15T12:23:03;-3.80;99.90
24522;DHT22;12680;57.804;12.190;2024-01-15T12:25:34;-3.70;99.90
24522;DHT22;12680;57.804;12.190;2024-01-15T12:28:01;-3.70;99.90
24522;DHT22;12680;57.804;12.190;2024-01-15T12:30:29;-3.70;99.90
24522;DHT22;12680;57.804;12.190;2024-01-15T12:33:01;-3.70;99.90
24522;DHT22;12680;57.804;12.190;2024-01-15T12:37:56;-3.80;99.90
24522;DHT22;12680;57.804;12.190;2024-01-15T12:40:23;-3.70;99.90
24522;DHT22;12680;57.804;12.190;2024-01-15T12:45:18;-3.60;99.90
24522;DHT22;12680;57.804;12.190;2024-01-15T12:47:46;-3.70;99.90
24522;DHT22;12680;57.804;12.190;2024-01-15T12:50:13;-3.60;99.90
24522;DHT22;12680;57.804;12.190;2024-01-15T12:52:46;-3.60;99.90
24522;DHT22;12680;57.804;12.190;2024-01-15T12:55:14;-3.60;99.90
24522;DHT22;12680;57.804;12.190;2024-01-15T12:57:42;-3.70;99.90
24522;DHT22;12680;57.804;12.190;2024-01-15T13:00:09;-3.70;99.90
24522;DHT22;12680;57.804;12.190;2024-01-15T13:02:41;-3.80;99.90
24522;DHT22;12680;57.804;12.190;2024-01-15T13:05:09;-3.80;99.90
24522;DHT22;12680;57.804;12.190;2024-01-15T13:07:41;-3.80;99.90
24522;DHT22;12680;57.804;12.190;2024-01-15T13:10:09;-3.90;99.90
24522;DHT22;12680;57.804;12.190;2024-01-15T13:12:37;-4.00;99.90
24522;DHT22;12680;57.804;12.190;2024-01-15T13:15:05;-4.30;99.90
24522;DHT22;12680;57.804;12.190;2024-01-15T13:17:32;-4.00;99.90
24522;DHT22;12680;57.804;12.190;2024-01-15T13:19:59;-4.00;99.90
24522;DHT22;12680;57.804;12.190;2024-01-15T13:22:27;-3.90;99.90
24522;DHT22;12680;57.804;12.190;2024-01-15T13:24:58;-3.90;99.90
24522;DHT22;12680;57.804;12.190;2024-01-15T13:27:26;-3.90;99.90
24522;DHT22;12680;57.804;12.190;2024-01-15T13:29:53;-3.80;99.90
24522;DHT22;12680;57.804;12.190;2024-01-15T13:32:24;-3.70;99.90
24522;DHT22;12680;57.804;12.190;2024-01-15T13:34:58;-3.80;99.90
24522;DHT22;12680;57.804;12.190;2024-01-15T13:37:25;-3.90;99.90
24522;DHT22;12680;57.804;12.190;2024-01-15T13:39:52;-4.00;99.90
24522;DHT22;12680;57.804;12.190;2024-01-15T13:42:20;-4.00;99.90
24522;DHT22;12680;57.804;12.190;2024-01-15T13:47:18;-4.30;99.90
24522;DHT22;12680;57.804;12.190;2024-01-15T13:49:45;-4.40;99.90
24522;DHT22;12680;57.804;12.190;2024-01-15T13:52:11;-4.50;99.90
24522;DHT22;12680;57.804;12.190;2024-01-15T13:57:19;-4.70;99.90
24522;DHT22;12680;57.804;12.190;2024-01-15T14:04:47;-4.80;99.90
24522;DHT22;12680;57.804;12.190;2024-01-15T14:07:16;-4.90;99.90
24522;DHT22;12680;57.804;12.190;2024-01-15T14:09:43;-4.90;99.90
24522;DHT22;12680;57.804;12.190;2024-01-15T14:12:10;-5.00;99.90
24522;DHT22;12680;57.804;12.190;2024-01-15T14:14:37;-5.00;99.90
24522;DHT22;12680;57.804;12.190;2024-01-15T14:21:58;-5.20;99.90
24522;DHT22;12680;57.804;12.190;2024-01-15T14:26:52;-5.10;99.90
24522;DHT22;12680;57.804;12.190;2024-01-15T14:29:19;-5.10;99.90
24522;DHT22;12680;57.804;12.190;2024-01-15T14:34:16;-5.10;99.90
24522;DHT22;12680;57.804;12.190;2024-01-15T14:36:44;-5.10;99.90
24522;DHT22;12680;57.804;12.190;2024-01-15T14:39:12;-5.10;99.90
24522;DHT22;12680;57.804;12.190;2024-01-15T14:41:39;-5.10;99.90
24522;DHT22;12680;57.804;12.190;2024-01-15T14:44:06;-5.10;99.90
24522;DHT22;12680;57.804;12.190;2024-01-15T14:49:00;-5.10;99.90
24522;DHT22;12680;57.804;12.190;2024-01-15T14:51:27;-5.10;99.90
24522;DHT22;12680;57.804;12.190;2024-01-15T14:53:54;-5.40;99.90
24522;DHT22;12680;57.804;12.190;2024-01-15T14:56:21;-5.30;99.90
24522;DHT22;12680;57.804;12.190;2024-01-15T15:01:15;-5.40;99.90
24522;DHT22;12680;57.804;12.190;2024-01-15T15:03:42;-5.50;99.90
24522;DHT22;12680;57.804;12.190;2024-01-15T15:06:11;-5.40;99.90
24522;DHT22;12680;57.804;12.190;2024-01-15T15:08:39;-5.30;99.90
24522;DHT22;12680;57.804;12.190;2024-01-15T15:11:07;-5.40;99.90
24522;DHT22;12680;57.804;12.190;2024-01-15T15:13:33;-5.50;99.90
24522;DHT22;12680;57.804;12.190;2024-01-15T15:16:11;-5.50;99.90
24522;DHT22;12680;57.804;12.190;2024-01-15T15:18:40;-5.70;99.90
24522;DHT22;12680;57.804;12.190;2024-01-15T15:21:10;-5.60;99.90
24522;DHT22;12680;57.804;12.190;2024-01-15T15:31:05;-5.70;99.90
24522;DHT22;12680;57.804;12.190;2024-01-15T15:33:35;-5.70;99.90
24522;DHT22;12680;57.804;12.190;2024-01-15T15:36:03;-5.70;99.90
24522;DHT22;12680;57.804;12.190;2024-01-15T15:38:32;-5.70;99.90
24522;DHT22;12680;57.804;12.190;2024-01-15T15:40:59;-5.70;99.90
24522;DHT22;12680;57.804;12.190;2024-01-15T15:43:27;-5.80;99.90
24522;DHT22;12680;57.804;12.190;2024-01-15T15:45:53;-5.90;99.90
24522;DHT22;12680;57.804;12.190;2024-01-15T15:48:20;-6.00;99.90
24522;DHT22;12680;57.804;12.190;2024-01-15T15:50:47;-6.10;99.90
24522;DHT22;12680;57.804;12.190;2024-01-15T15:53:14;-6.10;99.90
24522;DHT22;12680;57.804;12.190;2024-01-15T15:58:08;-6.00;99.90
24522;DHT22;12680;57.804;12.190;2024-01-15T16:00:36;-5.90;99.90
24522;DHT22;12680;57.804;12.190;2024-01-15T16:08:11;-6.00;99.90
24522;DHT22;12680;57.804;12.190;2024-01-15T16:10:38;-6.00;99.90
24522;DHT22;12680;57.804;12.190;2024-01-15T16:13:05;-5.80;99.90
24522;DHT22;12680;57.804;12.190;2024-01-15T16:15:32;-5.80;99.90
24522;DHT22;12680;57.804;12.190;2024-01-15T16:18:00;-5.70;99.90
24522;DHT22;12680;57.804;12.190;2024-01-15T16:20:47;-5.60;99.90
24522;DHT22;12680;57.804;12.190;2024-01-15T16:23:33;-5.60;99.90
24522;DHT22;12680;57.804;12.190;2024-01-15T16:26:20;-5.50;99.90
24522;DHT22;12680;57.804;12.190;2024-01-15T16:28:47;-5.60;99.90
24522;DHT22;12680;57.804;12.190;2024-01-15T16:33:42;-5.20;99.90
24522;DHT22;12680;57.804;12.190;2024-01-15T16:38:47;-5.30;99.90